sensor_id;sensor_type;location;lat;lon;timestamp;temperature;humidity
26623;DHT22;14254;50.968;5.366;2022-08-25T00:01:45;23.30;99.90
26623;DHT22;14254;50.968;5.366;2022-08-25T00:04:14;23.40;99.90
26623;DHT22;14254;50.968;5.366;2022-08-25T00:06:41;23.20;99.90
26623;DHT22;14254;50.968;5.366;2022-08-25T00:09:09;23.20;99.90
26623;DHT22;14254;50.968;5.366;2022-08-25T00:11:37;23.20;99.90
26623;DHT22;14254;50.968;5.366;2022-08-25T00:14:09;23.20;99.90
26623;DHT22;14254;50.968;5.366;2022-08-25T00:16:36;23.10;99.90
26623;DHT22;14254;50.968;5.366;2022-08-25T00:19:06;23.20;99.90
26623;DHT22;14254;50.968;5.366;2022-08-25T00:21:32;23.10;99.90
26623;DHT22;14254;50.968;5.366;2022-08-25T00:23:59;23.00;99.90
26623;DHT22;14254;50.968;5.366;2022-08-25T00:26:26;23.00;99.90
26623;DHT22;14254;50.968;5.366;2022-08-25T00:28:52;23.00;99.90
26623;DHT22;14254;50.968;5.366;2022-08-25T00:31:20;22.90;99.90
26623;DHT22;14254;50.968;5.366;2022-08-25T00:33:48;22.80;99.90
26623;DHT22;14254;50.968;5.366;2022-08-25T00:36:16;22.70;99.90
26623;DHT22;14254;50.968;5.366;2022-08-25T00:38:43;22.60;99.90
26623;DHT22;14254;50.968;5.366;2022-08-25T00:41:11;22.50;99.90
26623;DHT22;14254;50.968;5.366;2022-08-25T00:46:14;22.40;99.90
26623;DHT22;14254;50.968;5.366;2022-08-25T00:48:42;22.30;99.90
26623;DHT22;14254;50.968;5.366;2022-08-25T00:51:13;22.30;99.90
26623;DHT22;14254;50.968;5.366;2022-08-25T00:53:41;22.20;99.90
26623;DHT22;14254;50.968;5.366;2022-08-25T00:56:08;22.10;99.90
26623;DHT22;14254;50.968;5.366;2022-08-25T00:58:35;22.10;99.90
26623;DHT22;14254;50.968;5.366;2022-08-25T01:01:02;22.00;99.90
26623;DHT22;14254;50.968;5.366;2022-08-25T01:03:29;22.00;99.90
26623;DHT22;14254;50.968;5.366;2022-08-25T01:05:59;21.90;99.90
26623;DHT22;14254;50.968;5.366;2022-08-25T01:08:27;21.90;99.90
26623;DHT22;14254;50.968;5.366;2022-08-25T01:10:53;21.90;99.90
26623;DHT22;14254;50.968;5.366;2022-08-25T01:13:29;22.00;99.90
26623;DHT22;14254;50.968;5.366;2022-08-25T01:15:56;21.90;99.90
26623;DHT22;14254;50.968;5.366;2022-08-25T01:18:24;21.80;99.90
26623;DHT22;14254;50.968;5.366;2022-08-25T01:20:54;21.80;99.90
26623;DHT22;14254;50.968;5.366;2022-08-25T01:23:21;21.80;99.90
26623;DHT22;14254;50.968;5.366;2022-08-25T01:26:13;21.80;99.90
26623;DHT22;14254;50.968;5.366;2022-08-25T01:28:39;21.60;99.90
26623;DHT22;14254;50.968;5.366;2022-08-25T01:31:26;21.50;99.90
26623;DHT22;14254;50.968;5.366;2022-08-25T01:33:53;21.40;99.90
26623;DHT22;14254;50.968;5.366;2022-08-25T01:36:20;21.30;99.90
26623;DHT22;14254;50.968;5.366;2022-08-25T01:38:46;21.30;99.90
26623;DHT22;14254;50.968;5.366;2022-08-25T01:41:11;21.20;99.90
26623;DHT22;14254;50.968;5.366;2022-08-25T01:43:40;21.10;99.90
26623;DHT22;14254;50.968;5.366;2022-08-25T01:46:06;21.10;99.90
26623;DHT22;14254;50.968;5.366;2022-08-25T01:48:32;21.00;99.90
26623;DHT22;14254;50.968;5.366;2022-08-25T01:50:58;20.90;99.90
26623;DHT22;14254;50.968;5.366;2022-08-25T01:53:30;20.90;99.90
26623;DHT22;14254;50.968;5.366;2022-08-25T01:55:56;20.90;99.90
26623;DHT22;14254;50.968;5.366;2022-08-25T01:58:35;20.80;99.90
26623;DHT22;14254;50.968;5.366;2022-08-25T02:01:05;20.70;99.90
26623;DHT22;14254;50.968;5.366;2022-08-25T02:03:32;20.70;99.90
26623;DHT22;14254;50.968;5.366;2022-08-25T02:06:00;20.50;99.90
26623;DHT22;14254;50.968;5.366;2022-08-25T02:08:26;20.60;99.90
26623;DHT22;14254;50.968;5.366;2022-08-25T02:10:52;20.50;99.90
26623;DHT22;14254;50.968;5.366;2022-08-25T02:13:20;20.50;99.90
26623;DHT22;14254;50.968;5.366;2022-08-25T02:15:49;20.50;99.90
26623;DHT22;14254;50.968;5.366;2022-08-25T02:18:16;20.50;99.90
26623;DHT22;14254;50.968;5.366;2022-08-25T02:20:42;20.50;99.90
26623;DHT22;14254;50.968;5.366;2022-08-25T02:23:08;20.40;99.90
26623;DHT22;14254;50.968;5.366;2022-08-25T02:25:36;20.40;99.90
26623;DHT22;14254;50.968;5.366;2022-08-25T02:28:02;20.30;99.90
26623;DHT22;14254;50.968;5.366;2022-08-25T02:30:28;20.30;99.90
26623;DHT22;14254;50.968;5.366;2022-08-25T02:32:54;20.30;99.90
26623;DHT22;14254;50.968;5.366;2022-08-25T02:35:20;20.30;99.90
26623;DHT22;14254;50.968;5.366;2022-08-25T02:37:46;20.20;99.90
26623;DHT22;14254;50.968;5.366;2022-08-25T02:40:12;20.10;99.90
26623;DHT22;14254;50.968;5.366;2022-08-25T02:42:38;20.10;99.90
26623;DHT22;14254;50.968;5.366;2022-08-25T02:45:04;20.10;99.90
26623;DHT22;14254;50.968;5.366;2022-08-25T02:47:32;20.10;99.90
26623;DHT22;14254;50.968;5.366;2022-08-25T02:49:57;20.00;99.90
26623;DHT22;14254;50.968;5.366;2022-08-25T02:52:23;20.00;99.90
26623;DHT22;14254;50.968;5.366;2022-08-25T02:54:50;20.00;99.90
26623;DHT22;14254;50.968;5.366;2022-08-25T02:57:15;20.00;99.90
26623;DHT22;14254;50.968;5.366;2022-08-25T02:59:42;19.90;99.90
26623;DHT22;14254;50.968;5.366;2022-08-25T03:02:11;19.90;99.90
26623;DHT22;14254;50.968;5.366;2022-08-25T03:04:37;19.90;99.90
26623;DHT22;14254;50.968;5.366;2022-08-25T03:07:03;19.80;99.90
26623;DHT22;14254;50.968;5.366;2022-08-25T03:09:29;19.70;99.90
26623;DHT22;14254;50.968;5.366;2022-08-25T03:11:55;19.80;99.90
26623;DHT22;14254;50.968;5.366;2022-08-25T03:14:20;19.80;99.90
26623;DHT22;14254;50.968;5.366;2022-08-25T03:16:46;19.80;99.90
26623;DHT22;14254;50.968;5.366;2022-08-25T03:19:12;19.70;99.90
26623;DHT22;14254;50.968;5.366;2022-08-25T03:21:38;19.70;99.90
26623;DHT22;14254;50.968;5.366;2022-08-25T03:24:05;19.60;99.90
26623;DHT22;14254;50.968;5.366;2022-08-25T03:26:30;19.60;99.90
26623;DHT22;14254;50.968;5.366;2022-08-25T03:29:15;19.50;99.90
26623;DHT22;14254;50.968;5.366;2022-08-25T03:31:41;19.50;99.90
26623;DHT22;14254;50.968;5.366;2022-08-25T03:34:11;19.50;99.90
26623;DHT22;14254;50.968;5.366;2022-08-25T03:36:38;19.40;99.90
26623;DHT22;14254;50.968;5.366;2022-08-25T03:39:04;19.50;99.90
26623;DHT22;14254;50.968;5.366;2022-08-25T03:41:30;19.40;99.90
26623;DHT22;14254;50.968;5.366;2022-08-25T03:44:00;19.40;99.90
26623;DHT22;14254;50.968;5.366;2022-08-25T03:46:40;19.40;99.90
26623;DHT22;14254;50.968;5.366;2022-08-25T03:49:07;19.30;99.90
26623;DHT22;14254;50.968;5.366;2022-08-25T03:51:39;19.30;99.90
26623;DHT22;14254;50.968;5.366;2022-08-25T03:54:07;19.30;99.90
26623;DHT22;14254;50.968;5.366;2022-08-25T03:56:33;19.30;99.90
26623;DHT22;14254;50.968;5.366;2022-08-25T03:58:59;19.30;99.90
26623;DHT22;14254;50.968;5.366;2022-08-25T04:01:25;19.40;99.90
26623;DHT22;14254;50.968;5.366;2022-08-25T04:03:52;19.30;99.90
26623;DHT22;14254;50.968;5.366;2022-08-25T04:06:18;19.20;99.90
26623;DHT22;14254;50.968;5.366;2022-08-25T04:08:44;19.20;99.90
26623;DHT22;14254;50.968;5.366;2022-08-25T04:11:15;19.00;99.90
26623;DHT22;14254;50.968;5.366;2022-08-25T04:13:42;18.90;99.90
26623;DHT22;14254;50.968;5.366;2022-08-25T04:16:17;18.90;99.90
26623;DHT22;14254;50.968;5.366;2022-08-25T04:18:44;19.00;99.90
26623;DHT22;14254;50.968;5.366;2022-08-25T04:21:11;18.90;99.90
26623;DHT22;14254;50.968;5.366;2022-08-25T04:23:39;18.70;99.90
26623;DHT22;14254;50.968;5.366;2022-08-25T04:26:10;18.60;99.90
26623;DHT22;14254;50.968;5.366;2022-08-25T04:28:36;18.60;99.90
26623;DHT22;14254;50.968;5.366;2022-08-25T04:31:06;18.60;99.90
26623;DHT22;14254;50.968;5.366;2022-08-25T04:33:32;18.60;99.90
26623;DHT22;14254;50.968;5.366;2022-08-25T04:35:58;18.70;99.90
26623;DHT22;14254;50.968;5.366;2022-08-25T04:38:24;18.60;99.90
26623;DHT22;14254;50.968;5.366;2022-08-25T04:40:57;18.70;99.90
26623;DHT22;14254;50.968;5.366;2022-08-25T04:43:24;18.80;99.90
26623;DHT22;14254;50.968;5.366;2022-08-25T04:45:50;18.80;99.90
26623;DHT22;14254;50.968;5.366;2022-08-25T04:48:16;18.90;99.90
26623;DHT22;14254;50.968;5.366;2022-08-25T04:50:42;18.90;99.90
26623;DHT22;14254;50.968;5.366;2022-08-25T04:53:09;19.00;99.90
26623;DHT22;14254;50.968;5.366;2022-08-25T04:55:43;19.00;99.90
26623;DHT22;14254;50.968;5.366;2022-08-25T04:58:10;19.10;99.90
26623;DHT22;14254;50.968;5.366;2022-08-25T05:00:37;19.10;99.90
26623;DHT22;14254;50.968;5.366;2022-08-25T05:03:03;19.10;99.90
26623;DHT22;14254;50.968;5.366;2022-08-25T05:05:29;19.20;99.90
26623;DHT22;14254;50.968;5.366;2022-08-25T05:07:55;19.20;99.90
26623;DHT22;14254;50.968;5.366;2022-08-25T05:10:21;19.30;99.90
26623;DHT22;14254;50.968;5.366;2022-08-25T05:12:47;19.30;99.90
26623;DHT22;14254;50.968;5.366;2022-08-25T05:15:12;19.40;99.90
26623;DHT22;14254;50.968;5.366;2022-08-25T05:17:57;19.50;99.90
26623;DHT22;14254;50.968;5.366;2022-08-25T05:20:23;19.50;99.90
26623;DHT22;14254;50.968;5.366;2022-08-25T05:22:49;19.60;99.90
26623;DHT22;14254;50.968;5.366;2022-08-25T05:25:14;19.60;99.90
26623;DHT22;14254;50.968;5.366;2022-08-25T05:27:41;19.60;99.90
26623;DHT22;14254;50.968;5.366;2022-08-25T05:30:09;19.60;99.90
26623;DHT22;14254;50.968;5.366;2022-08-25T05:32:35;19.60;99.90
26623;DHT22;14254;50.968;5.366;2022-08-25T05:35:00;19.80;99.90
26623;DHT22;14254;50.968;5.366;2022-08-25T05:37:26;19.90;99.90
26623;DHT22;14254;50.968;5.366;2022-08-25T05:39:52;20.00;99.90
26623;DHT22;14254;50.968;5.366;2022-08-25T05:42:17;20.10;99.90
26623;DHT22;14254;50.968;5.366;2022-08-25T05:44:43;20.10;99.90
26623;DHT22;14254;50.968;5.366;2022-08-25T05:47:09;20.20;99.90
26623;DHT22;14254;50.968;5.366;2022-08-25T05:49:34;20.40;99.90
26623;DHT22;14254;50.968;5.366;2022-08-25T05:52:00;20.50;99.90
26623;DHT22;14254;50.968;5.366;2022-08-25T05:54:26;20.60;99.90
26623;DHT22;14254;50.968;5.366;2022-08-25T05:56:51;20.70;99.90
26623;DHT22;14254;50.968;5.366;2022-08-25T05:59:17;20.80;99.90
26623;DHT22;14254;50.968;5.366;2022-08-25T06:01:42;21.00;99.90
26623;DHT22;14254;50.968;5.366;2022-08-25T06:04:27;21.20;99.90
26623;DHT22;14254;50.968;5.366;2022-08-25T06:06:52;21.40;99.90
26623;DHT22;14254;50.968;5.366;2022-08-25T06:09:20;21.50;99.90
26623;DHT22;14254;50.968;5.366;2022-08-25T06:11:47;21.70;99.90
26623;DHT22;14254;50.968;5.366;2022-08-25T06:14:14;21.80;99.90
26623;DHT22;14254;50.968;5.366;2022-08-25T06:16:40;21.90;99.90
26623;DHT22;14254;50.968;5.366;2022-08-25T06:19:07;22.10;99.90
26623;DHT22;14254;50.968;5.366;2022-08-25T06:21:33;22.30;99.90
26623;DHT22;14254;50.968;5.366;2022-08-25T06:23:59;22.40;99.90
26623;DHT22;14254;50.968;5.366;2022-08-25T06:26:25;22.50;99.90
26623;DHT22;14254;50.968;5.366;2022-08-25T06:28:52;22.60;99.90
26623;DHT22;14254;50.968;5.366;2022-08-25T06:31:19;22.70;99.90
26623;DHT22;14254;50.968;5.366;2022-08-25T06:33:45;22.80;99.90
26623;DHT22;14254;50.968;5.366;2022-08-25T06:36:11;22.90;99.90
26623;DHT22;14254;50.968;5.366;2022-08-25T06:38:37;23.20;99.90
26623;DHT22;14254;50.968;5.366;2022-08-25T06:41:04;23.20;99.90
26623;DHT22;14254;50.968;5.366;2022-08-25T06:43:31;23.40;99.90
26623;DHT22;14254;50.968;5.366;2022-08-25T06:45:58;23.50;99.90
26623;DHT22;14254;50.968;5.366;2022-08-25T06:48:31;23.70;99.90
26623;DHT22;14254;50.968;5.366;2022-08-25T06:50:58;23.80;99.90
26623;DHT22;14254;50.968;5.366;2022-08-25T06:53:24;24.00;99.90
26623;DHT22;14254;50.968;5.366;2022-08-25T06:55:56;24.10;99.90
26623;DHT22;14254;50.968;5.366;2022-08-25T06:58:22;24.10;99.90
26623;DHT22;14254;50.968;5.366;2022-08-25T07:00:48;24.40;99.90
26623;DHT22;14254;50.968;5.366;2022-08-25T07:03:13;24.70;99.90
26623;DHT22;14254;50.968;5.366;2022-08-25T07:05:39;24.90;99.90
26623;DHT22;14254;50.968;5.366;2022-08-25T07:08:05;25.20;99.90
26623;DHT22;14254;50.968;5.366;2022-08-25T07:10:31;25.40;99.90
26623;DHT22;14254;50.968;5.366;2022-08-25T07:12:56;25.60;99.90
26623;DHT22;14254;50.968;5.366;2022-08-25T07:15:22;25.80;99.90
26623;DHT22;14254;50.968;5.366;2022-08-25T07:17:48;26.10;99.90
26623;DHT22;14254;50.968;5.366;2022-08-25T07:20:15;26.10;99.90
26623;DHT22;14254;50.968;5.366;2022-08-25T07:22:40;26.30;99.90
26623;DHT22;14254;50.968;5.366;2022-08-25T07:25:07;26.60;99.50
26623;DHT22;14254;50.968;5.366;2022-08-25T07:27:34;26.80;99.60
26623;DHT22;14254;50.968;5.366;2022-08-25T07:29:59;27.00;98.80
26623;DHT22;14254;50.968;5.366;2022-08-25T07:32:25;27.00;98.10
26623;DHT22;14254;50.968;5.366;2022-08-25T07:34:51;27.20;98.20
26623;DHT22;14254;50.968;5.366;2022-08-25T07:37:37;27.20;98.30
26623;DHT22;14254;50.968;5.366;2022-08-25T07:40:04;27.30;97.90
26623;DHT22;14254;50.968;5.366;2022-08-25T07:42:30;27.70;96.90
26623;DHT22;14254;50.968;5.366;2022-08-25T07:44:55;27.90;96.20
26623;DHT22;14254;50.968;5.366;2022-08-25T07:47:21;27.90;96.00
26623;DHT22;14254;50.968;5.366;2022-08-25T07:49:47;28.20;95.60
26623;DHT22;14254;50.968;5.366;2022-08-25T07:52:12;28.30;94.10
26623;DHT22;14254;50.968;5.366;2022-08-25T07:54:39;28.30;94.40
26623;DHT22;14254;50.968;5.366;2022-08-25T07:57:06;28.50;93.50
26623;DHT22;14254;50.968;5.366;2022-08-25T07:59:32;28.70;93.70
26623;DHT22;14254;50.968;5.366;2022-08-25T08:01:58;28.90;93.40
26623;DHT22;14254;50.968;5.366;2022-08-25T08:04:24;29.00;92.50
26623;DHT22;14254;50.968;5.366;2022-08-25T08:06:50;29.00;91.80
26623;DHT22;14254;50.968;5.366;2022-08-25T08:09:16;29.20;91.70
26623;DHT22;14254;50.968;5.366;2022-08-25T08:11:41;29.20;92.20
26623;DHT22;14254;50.968;5.366;2022-08-25T08:14:09;29.20;91.10
26623;DHT22;14254;50.968;5.366;2022-08-25T08:16:36;29.10;91.90
26623;DHT22;14254;50.968;5.366;2022-08-25T08:19:03;29.20;91.80
26623;DHT22;14254;50.968;5.366;2022-08-25T08:21:31;29.20;91.80
26623;DHT22;14254;50.968;5.366;2022-08-25T08:23:57;29.50;91.10
26623;DHT22;14254;50.968;5.366;2022-08-25T08:26:24;29.60;90.90
26623;DHT22;14254;50.968;5.366;2022-08-25T08:28:50;29.70;90.10
26623;DHT22;14254;50.968;5.366;2022-08-25T08:31:18;29.70;90.50
26623;DHT22;14254;50.968;5.366;2022-08-25T08:33:46;29.60;90.00
26623;DHT22;14254;50.968;5.366;2022-08-25T08:36:12;29.60;90.00
26623;DHT22;14254;50.968;5.366;2022-08-25T08:38:40;29.80;88.70
26623;DHT22;14254;50.968;5.366;2022-08-25T08:53:08;29.90;89.10
26623;DHT22;14254;50.968;5.366;2022-08-25T09:01:04;30.20;89.70
26623;DHT22;14254;50.968;5.366;2022-08-25T09:03:38;30.30;87.70
26623;DHT22;14254;50.968;5.366;2022-08-25T09:06:21;30.20;88.60
26623;DHT22;14254;50.968;5.366;2022-08-25T09:08:48;30.20;88.80
26623;DHT22;14254;50.968;5.366;2022-08-25T09:14:25;30.50;85.50
26623;DHT22;14254;50.968;5.366;2022-08-25T09:17:04;30.60;87.10
26623;DHT22;14254;50.968;5.366;2022-08-25T09:19:52;30.40;86.30
26623;DHT22;14254;50.968;5.366;2022-08-25T09:25:12;30.40;86.40
26623;DHT22;14254;50.968;5.366;2022-08-25T09:30:43;30.70;87.90
26623;DHT22;14254;50.968;5.366;2022-08-25T09:33:12;30.90;85.70
26623;DHT22;14254;50.968;5.366;2022-08-25T09:35:40;31.00;85.10
26623;DHT22;14254;50.968;5.366;2022-08-25T09:38:10;31.00;81.50
26623;DHT22;14254;50.968;5.366;2022-08-25T09:40:43;31.10;81.30
26623;DHT22;14254;50.968;5.366;2022-08-25T09:45:47;31.30;79.70
26623;DHT22;14254;50.968;5.366;2022-08-25T09:51:01;31.60;79.10
26623;DHT22;14254;50.968;5.366;2022-08-25T09:53:34;31.60;76.90
26623;DHT22;14254;50.968;5.366;2022-08-25T09:56:03;31.70;76.50
26623;DHT22;14254;50.968;5.366;2022-08-25T09:58:30;31.70;77.70
26623;DHT22;14254;50.968;5.366;2022-08-25T10:01:12;31.80;78.50
26623;DHT22;14254;50.968;5.366;2022-08-25T10:06:17;32.10;78.70
26623;DHT22;14254;50.968;5.366;2022-08-25T10:11:27;32.30;78.10
26623;DHT22;14254;50.968;5.366;2022-08-25T10:14:49;31.90;77.10
26623;DHT22;14254;50.968;5.366;2022-08-25T10:16:49;31.60;75.00
26623;DHT22;14254;50.968;5.366;2022-08-25T10:19:25;31.70;74.00
26623;DHT22;14254;50.968;5.366;2022-08-25T10:22:21;31.80;73.00
26623;DHT22;14254;50.968;5.366;2022-08-25T10:24:48;31.70;71.80
26623;DHT22;14254;50.968;5.366;2022-08-25T10:30:07;32.00;72.60
26623;DHT22;14254;50.968;5.366;2022-08-25T10:41:57;32.00;73.80
26623;DHT22;14254;50.968;5.366;2022-08-25T10:44:41;32.10;72.90
26623;DHT22;14254;50.968;5.366;2022-08-25T10:47:47;32.60;72.10
26623;DHT22;14254;50.968;5.366;2022-08-25T10:50:25;32.70;72.00
26623;DHT22;14254;50.968;5.366;2022-08-25T10:55:47;32.70;72.50
26623;DHT22;14254;50.968;5.366;2022-08-25T10:58:48;32.90;71.80
26623;DHT22;14254;50.968;5.366;2022-08-25T11:04:34;33.60;70.20
26623;DHT22;14254;50.968;5.366;2022-08-25T11:09:39;33.10;69.00
26623;DHT22;14254;50.968;5.366;2022-08-25T11:14:39;32.60;68.10
26623;DHT22;14254;50.968;5.366;2022-08-25T11:17:17;33.00;70.40
26623;DHT22;14254;50.968;5.366;2022-08-25T11:19:47;33.10;68.20
26623;DHT22;14254;50.968;5.366;2022-08-25T11:27:56;33.70;67.50
26623;DHT22;14254;50.968;5.366;2022-08-25T11:30:23;33.90;67.20
26623;DHT22;14254;50.968;5.366;2022-08-25T11:32:50;34.30;66.50
26623;DHT22;14254;50.968;5.366;2022-08-25T11:35:24;34.10;64.70
26623;DHT22;14254;50.968;5.366;2022-08-25T11:51:29;35.10;64.90
26623;DHT22;14254;50.968;5.366;2022-08-25T11:56:41;34.70;63.00
26623;DHT22;14254;50.968;5.366;2022-08-25T11:59:07;33.90;64.00
26623;DHT22;14254;50.968;5.366;2022-08-25T12:14:53;34.70;62.70
26623;DHT22;14254;50.968;5.366;2022-08-25T12:17:25;34.50;63.10
26623;DHT22;14254;50.968;5.366;2022-08-25T12:19:56;35.00;64.00
26623;DHT22;14254;50.968;5.366;2022-08-25T12:27:32;38.10;58.40
26623;DHT22;14254;50.968;5.366;2022-08-25T12:35:14;45.00;46.60
26623;DHT22;14254;50.968;5.366;2022-08-25T12:37:59;45.50;44.50
26623;DHT22;14254;50.968;5.366;2022-08-25T12:40:36;46.10;43.90
26623;DHT22;14254;50.968;5.366;2022-08-25T12:43:51;47.90;42.20
26623;DHT22;14254;50.968;5.366;2022-08-25T12:45:53;49.80;40.90
26623;DHT22;14254;50.968;5.366;2022-08-25T12:56:06;48.80;38.70
26623;DHT22;14254;50.968;5.366;2022-08-25T13:01:42;49.90;38.30
26623;DHT22;14254;50.968;5.366;2022-08-25T13:04:34;50.60;37.60
26623;DHT22;14254;50.968;5.366;2022-08-25T13:07:25;50.50;37.40
26623;DHT22;14254;50.968;5.366;2022-08-25T13:10:03;49.20;37.50
26623;DHT22;14254;50.968;5.366;2022-08-25T13:13:00;49.20;37.40
26623;DHT22;14254;50.968;5.366;2022-08-25T13:15:46;48.50;37.10
26623;DHT22;14254;50.968;5.366;2022-08-25T13:18:25;47.80;37.50
26623;DHT22;14254;50.968;5.366;2022-08-25T13:21:07;47.00;38.90
26623;DHT22;14254;50.968;5.366;2022-08-25T13:23:41;48.20;37.60
26623;DHT22;14254;50.968;5.366;2022-08-25T13:26:11;46.80;38.20
26623;DHT22;14254;50.968;5.366;2022-08-25T13:28:39;46.20;38.30
26623;DHT22;14254;50.968;5.366;2022-08-25T13:31:17;45.60;39.90
26623;DHT22;14254;50.968;5.366;2022-08-25T13:33:56;45.30;39.90
26623;DHT22;14254;50.968;5.366;2022-08-25T13:36:24;43.90;40.00
26623;DHT22;14254;50.968;5.366;2022-08-25T13:39:23;42.30;42.40
26623;DHT22;14254;50.968;5.366;2022-08-25T13:41:53;40.20;44.20
26623;DHT22;14254;50.968;5.366;2022-08-25T13:44:20;38.70;45.50
26623;DHT22;14254;50.968;5.366;2022-08-25T13:46:46;37.60;47.70
26623;DHT22;14254;50.968;5.366;2022-08-25T13:49:24;37.50;48.10
26623;DHT22;14254;50.968;5.366;2022-08-25T13:51:52;37.00;49.30
26623;DHT22;14254;50.968;5.366;2022-08-25T13:56:53;36.60;50.30
26623;DHT22;14254;50.968;5.366;2022-08-25T13:59:25;36.10;50.10
26623;DHT22;14254;50.968;5.366;2022-08-25T14:01:53;36.40;49.80
26623;DHT22;14254;50.968;5.366;2022-08-25T14:09:52;36.50;49.50
26623;DHT22;14254;50.968;5.366;2022-08-25T14:12:45;36.70;50.00
26623;DHT22;14254;50.968;5.366;2022-08-25T14:15:27;36.50;50.10
26623;DHT22;14254;50.968;5.366;2022-08-25T14:18:07;36.50;50.20
26623;DHT22;14254;50.968;5.366;2022-08-25T14:20:34;36.30;50.30
26623;DHT22;14254;50.968;5.366;2022-08-25T14:23:08;36.00;50.50
26623;DHT22;14254;50.968;5.366;2022-08-25T14:25:37;35.50;50.90
26623;DHT22;14254;50.968;5.366;2022-08-25T14:28:08;35.20;51.40
26623;DHT22;14254;50.968;5.366;2022-08-25T14:30:38;34.90;52.00
26623;DHT22;14254;50.968;5.366;2022-08-25T14:33:08;35.10;51.70
26623;DHT22;14254;50.968;5.366;2022-08-25T14:35:34;35.30;51.10
26623;DHT22;14254;50.968;5.366;2022-08-25T14:38:09;34.60;52.40
26623;DHT22;14254;50.968;5.366;2022-08-25T14:40:36;34.20;52.90
26623;DHT22;14254;50.968;5.366;2022-08-25T14:43:02;34.20;53.80
26623;DHT22;14254;50.968;5.366;2022-08-25T14:45:27;34.40;52.70
26623;DHT22;14254;50.968;5.366;2022-08-25T14:48:02;34.90;52.20
26623;DHT22;14254;50.968;5.366;2022-08-25T14:50:28;35.10;51.80
26623;DHT22;14254;50.968;5.366;2022-08-25T14:52:54;35.10;52.50
26623;DHT22;14254;50.968;5.366;2022-08-25T14:55:20;35.30;53.00
26623;DHT22;14254;50.968;5.366;2022-08-25T14:57:45;35.00;51.90
26623;DHT22;14254;50.968;5.366;2022-08-25T15:00:11;35.70;52.00
26623;DHT22;14254;50.968;5.366;2022-08-25T15:02:40;36.80;50.60
26623;DHT22;14254;50.968;5.366;2022-08-25T15:05:07;36.60;50.40
26623;DHT22;14254;50.968;5.366;2022-08-25T15:07:36;37.10;50.30
26623;DHT22;14254;50.968;5.366;2022-08-25T15:10:21;39.10;47.40
26623;DHT22;14254;50.968;5.366;2022-08-25T15:12:47;40.60;45.60
26623;DHT22;14254;50.968;5.366;2022-08-25T15:15:12;43.20;44.30
26623;DHT22;14254;50.968;5.366;2022-08-25T15:17:39;45.20;40.80
26623;DHT22;14254;50.968;5.366;2022-08-25T15:20:06;46.80;40.20
26623;DHT22;14254;50.968;5.366;2022-08-25T15:22:32;47.90;38.80
26623;DHT22;14254;50.968;5.366;2022-08-25T15:24:58;49.00;37.70
26623;DHT22;14254;50.968;5.366;2022-08-25T15:27:24;48.50;37.50
26623;DHT22;14254;50.968;5.366;2022-08-25T15:29:49;45.90;39.00
26623;DHT22;14254;50.968;5.366;2022-08-25T15:32:15;44.80;40.50
26623;DHT22;14254;50.968;5.366;2022-08-25T15:34:41;45.60;40.00
26623;DHT22;14254;50.968;5.366;2022-08-25T15:37:10;46.90;39.60
26623;DHT22;14254;50.968;5.366;2022-08-25T15:39:36;47.50;38.40
26623;DHT22;14254;50.968;5.366;2022-08-25T15:42:03;46.90;38.90
26623;DHT22;14254;50.968;5.366;2022-08-25T15:44:29;47.60;38.40
26623;DHT22;14254;50.968;5.366;2022-08-25T15:46:56;48.50;37.80
26623;DHT22;14254;50.968;5.366;2022-08-25T15:49:22;48.90;36.80
26623;DHT22;14254;50.968;5.366;2022-08-25T15:51:48;48.20;37.30
26623;DHT22;14254;50.968;5.366;2022-08-25T15:54:14;46.90;38.10
26623;DHT22;14254;50.968;5.366;2022-08-25T15:56:40;44.90;39.40
26623;DHT22;14254;50.968;5.366;2022-08-25T15:59:05;44.40;40.50
26623;DHT22;14254;50.968;5.366;2022-08-25T16:01:32;44.80;40.10
26623;DHT22;14254;50.968;5.366;2022-08-25T16:03:57;45.50;39.70
26623;DHT22;14254;50.968;5.366;2022-08-25T16:06:24;46.30;39.80
26623;DHT22;14254;50.968;5.366;2022-08-25T16:08:50;46.20;38.50
26623;DHT22;14254;50.968;5.366;2022-08-25T16:11:21;44.80;40.00
26623;DHT22;14254;50.968;5.366;2022-08-25T16:13:47;44.20;40.70
26623;DHT22;14254;50.968;5.366;2022-08-25T16:16:14;43.70;41.00
26623;DHT22;14254;50.968;5.366;2022-08-25T16:18:41;44.40;41.20
26623;DHT22;14254;50.968;5.366;2022-08-25T16:21:10;45.40;40.80
26623;DHT22;14254;50.968;5.366;2022-08-25T16:23:36;45.90;39.30
26623;DHT22;14254;50.968;5.366;2022-08-25T16:26:07;46.10;38.90
26623;DHT22;14254;50.968;5.366;2022-08-25T16:28:37;46.60;39.70
26623;DHT22;14254;50.968;5.366;2022-08-25T16:31:03;46.90;38.70
26623;DHT22;14254;50.968;5.366;2022-08-25T16:33:29;46.20;38.60
26623;DHT22;14254;50.968;5.366;2022-08-25T16:38:31;45.60;39.40
26623;DHT22;14254;50.968;5.366;2022-08-25T16:40:57;43.90;40.60
26623;DHT22;14254;50.968;5.366;2022-08-25T16:43:22;43.80;41.50
26623;DHT22;14254;50.968;5.366;2022-08-25T16:45:59;43.50;41.50
26623;DHT22;14254;50.968;5.366;2022-08-25T16:48:27;43.60;41.20
26623;DHT22;14254;50.968;5.366;2022-08-25T16:50:52;41.50;42.50
26623;DHT22;14254;50.968;5.366;2022-08-25T16:53:18;41.00;44.00
26623;DHT22;14254;50.968;5.366;2022-08-25T16:56:03;41.30;44.00
26623;DHT22;14254;50.968;5.366;2022-08-25T16:58:30;41.20;43.90
26623;DHT22;14254;50.968;5.366;2022-08-25T17:01:06;40.80;44.20
26623;DHT22;14254;50.968;5.366;2022-08-25T17:03:33;39.90;45.10
26623;DHT22;14254;50.968;5.366;2022-08-25T17:05:59;38.70;46.00
26623;DHT22;14254;50.968;5.366;2022-08-25T17:08:24;37.60;47.70
26623;DHT22;14254;50.968;5.366;2022-08-25T17:11:02;36.70;48.70
26623;DHT22;14254;50.968;5.366;2022-08-25T17:13:28;36.10;49.30
26623;DHT22;14254;50.968;5.366;2022-08-25T17:15:54;35.60;50.00
26623;DHT22;14254;50.968;5.366;2022-08-25T17:18:20;35.60;50.10
26623;DHT22;14254;50.968;5.366;2022-08-25T17:20:46;35.70;50.20
26623;DHT22;14254;50.968;5.366;2022-08-25T17:23:12;35.60;50.50
26623;DHT22;14254;50.968;5.366;2022-08-25T17:25:40;35.70;50.40
26623;DHT22;14254;50.968;5.366;2022-08-25T17:28:06;34.80;52.10
26623;DHT22;14254;50.968;5.366;2022-08-25T17:30:32;34.30;52.60
26623;DHT22;14254;50.968;5.366;2022-08-25T17:32:59;34.40;53.20
26623;DHT22;14254;50.968;5.366;2022-08-25T17:35:26;34.20;54.20
26623;DHT22;14254;50.968;5.366;2022-08-25T17:37:51;34.10;54.10
26623;DHT22;14254;50.968;5.366;2022-08-25T17:40:17;34.00;54.10
26623;DHT22;14254;50.968;5.366;2022-08-25T17:42:43;34.00;54.00
26623;DHT22;14254;50.968;5.366;2022-08-25T17:45:09;33.80;54.20
26623;DHT22;14254;50.968;5.366;2022-08-25T17:47:34;33.70;54.60
26623;DHT22;14254;50.968;5.366;2022-08-25T17:50:01;33.60;54.70
26623;DHT22;14254;50.968;5.366;2022-08-25T17:52:27;33.70;55.10